createdAt,value
2018-11-06T00:00:50.724Z,97.91
2018-11-06T00:05:45.236Z,97.94
2018-11-06T00:10:39.627Z,97.58
2018-11-06T00:15:34.064Z,97.22
2018-11-06T00:20:28.444Z,96.93
2018-11-06T00:25:22.841Z,96.65
2018-11-06T00:30:17.266Z,97.10
2018-11-06T00:35:13.019Z,96.61
2018-11-06T00:40:07.577Z,96.80
2018-11-06T00:45:01.980Z,96.45
2018-11-06T00:49:56.376Z,97.29
2018-11-06T00:54:50.864Z,97.10
2018-11-06T00:59:45.263Z,96.01
2018-11-06T01:04:39.697Z,96.37
2018-11-06T01:09:34.093Z,96.10
2018-11-06T01:14:28.554Z,96.47
2018-11-06T01:19:22.957Z,97.24
2018-11-06T01:24:17.383Z,96.97
2018-11-06T01:29:11.769Z,96.72
2018-11-06T01:34:06.275Z,97.48
2018-11-06T01:39:00.657Z,97.67
2018-11-06T01:43:55.183Z,97.05
2018-11-06T01:48:49.588Z,97.38
2018-11-06T01:53:44.094Z,97.77
2018-11-06T01:58:38.500Z,96.91
2018-11-06T02:03:32.921Z,97.67
2018-11-06T02:08:27.463Z,96.53
2018-11-06T02:13:21.868Z,96.66
2018-11-06T02:18:16.255Z,96.35
2018-11-06T02:23:10.679Z,95.92
2018-11-06T02:28:05.266Z,95.88
2018-11-06T02:32:59.907Z,95.98
2018-11-06T02:37:54.283Z,96.64
2018-11-06T02:42:48.710Z,97.29
2018-11-06T02:47:43.569Z,98.19
2018-11-06T02:52:38.019Z,98.42
2018-11-06T02:57:32.429Z,99.20
2018-11-06T03:02:26.850Z,99.34
2018-11-06T03:07:21.264Z,99.90
2018-11-06T03:12:15.732Z,99.57
2018-11-06T03:17:10.138Z,99.52
2018-11-06T03:22:04.578Z,98.85
2018-11-06T03:26:59.062Z,99.19
2018-11-06T03:31:53.491Z,98.97
2018-11-06T03:36:47.881Z,98.90
2018-11-06T03:41:42.276Z,99.48
2018-11-06T03:46:36.673Z,99.45
2018-11-06T03:51:31.635Z,99.46
2018-11-06T03:56:26.029Z,99.77
2018-11-06T04:01:20.490Z,100.00
2018-11-06T04:06:14.883Z,99.27
2018-11-06T04:11:09.739Z,99.72
2018-11-06T04:16:04.125Z,99.82
2018-11-06T04:20:58.557Z,99.45
2018-11-06T04:25:52.999Z,98.71
2018-11-06T04:30:47.406Z,98.34
2018-11-06T04:35:41.788Z,97.95
2018-11-06T04:40:36.218Z,97.85
2018-11-06T04:45:30.634Z,97.85
2018-11-06T04:50:25.974Z,97.76
2018-11-06T04:55:20.450Z,97.18
2018-11-06T05:00:15.816Z,96.34
2018-11-06T05:05:10.629Z,96.31
2018-11-06T05:10:05.833Z,96.39
2018-11-06T05:15:00.237Z,96.86
2018-11-06T05:19:54.643Z,96.99
2018-11-06T05:24:49.060Z,96.71
2018-11-06T05:29:43.469Z,96.84
2018-11-06T05:34:37.988Z,97.31
2018-11-06T05:39:32.504Z,97.37
2018-11-06T05:44:26.927Z,97.90
2018-11-06T05:49:21.365Z,97.49
2018-11-06T05:54:15.830Z,96.82
2018-11-06T05:59:10.344Z,96.46
2018-11-06T06:04:04.800Z,96.31
2018-11-06T06:08:59.257Z,96.34
2018-11-06T06:13:53.880Z,96.11
2018-11-06T06:18:48.349Z,96.42
2018-11-06T06:23:42.769Z,97.08
2018-11-06T06:28:37.537Z,97.19
2018-11-06T06:33:31.857Z,97.37
2018-11-06T06:38:26.312Z,96.62
2018-11-06T06:43:20.696Z,96.66
2018-11-06T06:48:15.739Z,95.69
2018-11-06T06:53:10.280Z,94.85
2018-11-06T06:58:05.029Z,94.04
2018-11-06T07:02:59.848Z,94.34
2018-11-06T07:07:54.600Z,93.82
2018-11-06T07:12:53.224Z,93.30
2018-11-06T07:17:49.078Z,93.10
2018-11-06T07:22:43.702Z,92.82
2018-11-06T07:27:38.607Z,92.13
2018-11-06T07:32:33.244Z,91.24
2018-11-06T07:37:27.681Z,90.35
2018-11-06T07:42:22.264Z,90.91
2018-11-06T07:47:17.831Z,90.29
2018-11-06T07:52:12.264Z,89.87
2018-11-06T07:57:06.717Z,89.02
2018-11-06T08:02:01.233Z,88.31
2018-11-06T08:06:56.065Z,88.41
2018-11-06T08:11:50.541Z,87.87
2018-11-06T08:16:45.325Z,89.17
2018-11-06T08:21:40.177Z,88.79
2018-11-06T08:26:35.082Z,88.48
2018-11-06T08:31:30.574Z,87.29
2018-11-06T08:36:26.144Z,87.49
2018-11-06T08:41:21.019Z,86.61
2018-11-06T08:46:16.339Z,87.48
2018-11-06T08:51:12.099Z,86.72
2018-11-06T08:56:11.595Z,86.63
2018-11-06T09:01:06.949Z,84.74
2018-11-06T09:06:01.917Z,85.21
2018-11-06T09:10:57.723Z,84.87
2018-11-06T09:15:53.046Z,84.01
2018-11-06T09:20:47.984Z,83.85
2018-11-06T09:25:43.052Z,82.94
2018-11-06T09:30:38.109Z,81.78
2018-11-06T09:35:35.397Z,82.88
2018-11-06T09:45:25.438Z,78.61
2018-11-06T09:50:20.948Z,79.60
2018-11-06T09:55:17.428Z,79.61
2018-11-06T10:00:16.224Z,80.16
2018-11-06T10:05:12.490Z,79.20
2018-11-06T10:10:10.844Z,79.39
2018-11-06T10:15:07.299Z,78.26
2018-11-06T10:20:02.694Z,76.62
2018-11-06T10:25:00.118Z,76.83
2018-11-06T10:29:55.373Z,75.42
2018-11-06T10:34:53.368Z,75.81
2018-11-06T10:39:48.086Z,74.24
2018-11-06T10:44:42.616Z,74.10
2018-11-06T10:49:39.560Z,73.31
2018-11-06T10:54:34.320Z,73.08
2018-11-06T10:59:28.864Z,72.14
2018-11-06T11:04:28.004Z,71.94
2018-11-06T11:09:25.893Z,71.28
2018-11-06T11:14:21.213Z,73.11
2018-11-06T11:19:15.807Z,73.22
2018-11-06T11:24:10.549Z,72.86
2018-11-06T11:29:06.173Z,72.71
2018-11-06T11:34:01.107Z,72.49
2018-11-06T11:38:57.711Z,70.70
2018-11-06T11:43:52.829Z,69.69
2018-11-06T11:48:47.373Z,69.41
2018-11-06T11:53:41.948Z,68.35
2018-11-06T11:58:37.968Z,68.30
2018-11-06T12:03:34.164Z,68.85
2018-11-06T12:08:30.348Z,68.24
2018-11-06T12:13:24.890Z,68.05
2018-11-06T12:18:19.447Z,66.97
2018-11-06T12:23:14.300Z,67.45
2018-11-06T12:28:20.777Z,66.97
2018-11-06T12:33:28.766Z,65.73
2018-11-06T12:38:35.353Z,66.41
2018-11-06T12:43:44.297Z,68.04
2018-11-06T12:48:50.545Z,68.40
2018-11-06T12:53:45.532Z,68.09
2018-11-06T12:58:41.049Z,69.15
2018-11-06T13:03:36.037Z,69.20
2018-11-06T13:08:30.777Z,69.28
2018-11-06T13:13:26.104Z,67.96
2018-11-06T13:18:21.472Z,68.06
2018-11-06T13:23:15.997Z,69.37
2018-11-06T13:28:11.318Z,71.15
2018-11-06T13:33:06.258Z,71.50
2018-11-06T13:38:00.849Z,70.91
2018-11-06T13:42:55.647Z,71.59
2018-11-06T13:47:49.871Z,72.53
2018-11-06T13:52:44.375Z,73.56
2018-11-06T13:57:38.988Z,73.43
2018-11-06T14:02:33.505Z,74.33
2018-11-06T14:07:30.302Z,75.55
2018-11-06T14:12:25.463Z,76.00
2018-11-06T14:17:20.500Z,76.50
2018-11-06T14:22:15.109Z,76.52
2018-11-06T14:27:10.357Z,77.15
2018-11-06T14:32:06.839Z,76.22
2018-11-06T14:37:02.014Z,77.13
2018-11-06T14:41:57.126Z,76.51
2018-11-06T14:46:52.868Z,76.92
2018-11-06T14:51:48.963Z,78.28
2018-11-06T14:56:50.243Z,78.53
2018-11-06T15:01:50.949Z,79.49
2018-11-06T15:06:53.445Z,79.85
2018-11-06T15:11:49.451Z,79.93
2018-11-06T15:16:44.858Z,79.45
2018-11-06T15:21:43.864Z,79.40
2018-11-06T15:26:45.271Z,78.44
2018-11-06T15:31:39.829Z,72.34
2018-11-06T15:36:34.610Z,71.84
2018-11-06T15:41:31.890Z,73.75
2018-11-06T15:46:29.881Z,72.06
2018-11-06T15:51:32.114Z,68.74
2018-11-06T15:56:28.849Z,67.98
2018-11-06T16:01:27.796Z,67.83
2018-11-06T16:06:26.551Z,67.87
2018-11-06T16:11:30.763Z,68.17
2018-11-06T16:16:33.774Z,68.41
2018-11-06T16:21:30.790Z,69.27
2018-11-06T16:26:31.877Z,69.97
2018-11-06T16:31:29.535Z,70.22
2018-11-06T16:36:32.297Z,69.97
2018-11-06T16:41:32.647Z,71.31
2018-11-06T16:46:27.292Z,70.74
2018-11-06T16:51:21.771Z,70.27
2018-11-06T16:56:16.567Z,71.11
2018-11-06T17:01:11.259Z,71.04
2018-11-06T17:06:05.848Z,72.21
2018-11-06T17:11:00.318Z,72.20
2018-11-06T17:16:19.743Z,72.52
2018-11-06T17:21:14.200Z,72.44
2018-11-06T17:26:19.487Z,72.11
2018-11-06T17:31:14.217Z,71.62
2018-11-06T17:36:08.676Z,72.52
2018-11-06T17:41:03.862Z,73.49
2018-11-06T17:46:00.945Z,73.29
2018-11-06T17:50:58.349Z,72.29
2018-11-06T17:55:55.576Z,73.09
2018-11-06T18:00:50.189Z,73.24
2018-11-06T18:05:44.712Z,71.83
2018-11-06T18:10:39.418Z,72.24
2018-11-06T18:15:33.852Z,71.78
2018-11-06T18:20:28.324Z,71.08
2018-11-06T18:25:22.935Z,71.12
2018-11-06T18:30:18.321Z,72.27
2018-11-06T18:35:14.453Z,72.83
2018-11-06T18:40:12.772Z,73.01
2018-11-06T18:45:07.502Z,74.20
2018-11-06T18:50:02.041Z,75.35
2018-11-06T18:54:56.576Z,73.77
2018-11-06T18:59:51.126Z,73.56
2018-11-06T19:04:45.649Z,73.49
2018-11-06T19:09:40.138Z,73.34
2018-11-06T19:14:34.661Z,73.11
2018-11-06T19:19:29.136Z,74.08
2018-11-06T19:24:23.775Z,75.02
2018-11-06T19:29:18.285Z,75.61
2018-11-06T19:34:12.767Z,75.51
2018-11-06T19:39:11.138Z,75.63
2018-11-06T19:44:05.662Z,76.64
2018-11-06T19:49:00.165Z,76.04
2018-11-06T19:53:54.597Z,77.04
2018-11-06T19:58:49.008Z,77.03
2018-11-06T20:03:43.454Z,76.82
2018-11-06T20:08:37.922Z,77.21
2018-11-06T20:13:32.400Z,76.79
2018-11-06T20:18:26.814Z,75.64
2018-11-06T20:23:21.326Z,76.47
2018-11-06T20:28:15.906Z,76.53
2018-11-06T20:33:10.427Z,76.52
2018-11-06T20:38:04.772Z,76.27
2018-11-06T20:42:59.377Z,76.44
2018-11-06T20:47:53.625Z,76.81
2018-11-06T20:52:48.401Z,76.88
2018-11-06T20:57:42.900Z,76.85
2018-11-06T21:02:37.338Z,78.77
2018-11-06T21:07:31.761Z,78.86
2018-11-06T21:12:26.200Z,79.73
2018-11-06T21:17:20.606Z,80.21
2018-11-06T21:22:15.027Z,81.20
2018-11-06T21:27:09.773Z,81.67
2018-11-06T21:32:04.613Z,80.39
2018-11-06T21:36:59.030Z,80.00
2018-11-06T21:41:53.537Z,80.28
2018-11-06T21:46:47.911Z,80.99
2018-11-06T21:51:42.376Z,81.80
2018-11-06T21:56:36.786Z,82.05
2018-11-06T22:01:31.233Z,82.34
2018-11-06T22:06:25.919Z,82.18
2018-11-06T22:11:20.335Z,81.87
2018-11-06T22:16:14.757Z,82.70
2018-11-06T22:21:09.187Z,83.36
2018-11-06T22:26:03.641Z,83.54
2018-11-06T22:30:58.077Z,84.07
2018-11-06T22:35:52.545Z,84.68
2018-11-06T22:40:46.961Z,85.09
2018-11-06T22:45:41.376Z,85.15
2018-11-06T22:50:35.847Z,85.91
2018-11-06T22:55:30.284Z,86.00
2018-11-06T23:00:29.949Z,86.60
2018-11-06T23:05:24.369Z,87.11
2018-11-06T23:10:18.816Z,86.86
2018-11-06T23:15:13.275Z,87.11
2018-11-06T23:20:08.745Z,87.29
2018-11-06T23:25:03.245Z,88.30
2018-11-06T23:29:57.582Z,88.03
2018-11-06T23:34:51.980Z,87.95
2018-11-06T23:39:46.379Z,87.59
2018-11-06T23:44:40.891Z,88.00
2018-11-06T23:49:35.297Z,87.92
2018-11-06T23:54:29.691Z,88.28
2018-11-06T23:59:24.128Z,89.68
